Cubero, NM (87014)

1:00 PM MDT on October 24, 2014 (GMT -0600)
Grants-Milan Municipal | Change Station
CLOSE
Current Station
Airport
Location: Grants-Milan,
Elevation: 6519 ft
Nearby Weather Stations

Elev 6519 ft 35.17 °N, 107.90 °W | Updated 23 minutes ago

Clear
Clear
70 °F
Feels Like 70 °F
N
6
Wind Variable Wind from NNE

Today
High -- | Low -- °F
--% Chance of Precip.
Yesterday
High -- | Low -- °F
Precip. -- in
7:25 AM 6:25 PM
New Moon, 1% visible
Pressure 30.40 in
Visibility 10.0 miles
Clouds Clear
Dew Point 30 °F
Humidity 23%
Rainfall 0.00 in
Snow Depth Not available.
UV 6 out of 12
Pollen 3.50 out of 12
Air Quality Not available.
Flu Activity Sporadic
METAR KGNT 241837Z AUTO 02005KT 10SM CLR 21/M01 A3040 RMK AO2

More Conditions Fewer Conditions

Pressure 30.40 in
Visibility 10.0 miles
Clouds Clear
Dew Point 30 °F
Humidity 23%
Rainfall 0.00 in
Snow Depth Not available.
UV 6 out of 12
Pollen 3.50 out of 12
Air Quality Not available.
Flu Activity Sporadic
METAR KGNT 241837Z AUTO 02005KT 10SM CLR 21/M01 A3040 RMK AO2

More Conditions Fewer Conditions

10-Day Weather Forecast

Almanac

Astronomy

Oct. 24, 2014 Rise Set
Actual Time 7:25 AM MDT 6:25 PM MDT
Civil Twilight 6:59 AM MDT 6:51 PM MDT
Nautical Twilight 6:29 AM MDT 7:20 PM MDT
Astronomical Twilight 6:00 AM MDT 7:50 PM MDT
Moon 8:05 AM MDT 7:09 PM MDT
Length of Visible Light 11h 52m
Length of Day
11h 00m
Tomorrow will be 2m 0s shorter.
New Moon, 1% of the Moon is Illuminated
Today
New Moon
Oct 30
First Quarter
Nov 6
Full
Nov 14
Last Quarter
Nov 22
New

Today's Extremes

State Highs State Lows

Community

WunderPhotos

Upload Photos

1,764,636 photos uploaded!

Nearby

Snow Depth

Station Depth Elevation
Senorita Divide #2 0 in 8600 ft
Frisco Divide 0 in 8000 ft
Quemazon 0 in 9500 ft
Silver Creek Divide 0 in 9000 ft
Elk Cabin 1 in 8210 ft

Earthquake Activity

City Distance Mag. Time & Date
No recent earthquake activity has been reported nearby.
Minimum magnitude displayed is 2.5.

Coastal Water Temperatures

Place Temperature
No Stations Reporting

Nearby Weather Stations